Shinsei Maru — JD2188 — position and weather

sailwx.info

Track history (hours):
 
Tides and Currents Weather Stations Pressure Air Temp Water Temp Dewpoint Dewpoint Depression Visibility Wind Speed Wind Dir Waves Ship Positions

Shinsei Maru

Last reported at 2017-Oct-15 14:39 UTC. Time now 2017-Nov-21 21:13 UTC.
Position N 34°57' E 139°44'.
Warning: this ship's position is 37 days out of date.

Length 104 m; draft 6.5 m.

Type: Tanker. MMSI: 431301775.

Date/timePositionNaut miles runAvg speedWind from/ knotsBaromVisibWave heightAir tempDewpointWater temp
2017-Oct-15 14:39N 34°57' E 139°44'813.1
2017-Oct-15 14:01N 35°05' E 139°44'714.1
2017-Oct-15 13:31N 35°12' E 139°46'612.0
2017-Oct-15 13:00N 35°18' E 139°44'4 8.6
2017-Oct-15 12:30N 35°22' E 139°42'3 6.6
2017-Oct-15 12:00N 35°24' E 139°40'0 0.2
2017-Oct-15 11:30N 35°24' E 139°40'0 0.0
2017-Oct-15 11:00N 35°24' E 139°40'0 0.0
2017-Oct-15 10:30N 35°24' E 139°40'0 0.0
2017-Oct-15 10:00N 35°24' E 139°40'0 0.0
2017-Oct-15 09:30N 35°24' E 139°40'0 0.0
2017-Oct-15 09:00N 35°24' E 139°40'0 0.0
2017-Oct-15 08:30N 35°24' E 139°40'0 0.0
2017-Oct-15 08:00N 35°24' E 139°40'0 0.0
2017-Oct-15 07:30N 35°24' E 139°40'0 0.0
2017-Oct-15 07:00N 35°24' E 139°40'0 0.0
2017-Oct-15 06:30N 35°24' E 139°40'0 0.0
2017-Oct-15 06:00N 35°24' E 139°40'0 0.0
2017-Oct-15 05:30N 35°24' E 139°40'0 0.0
2017-Oct-15 05:00N 35°24' E 139°40'0 0.0
2017-Oct-15 04:30N 35°24' E 139°40'0 0.0
2017-Oct-15 04:00N 35°24' E 139°40'0 0.0
2017-Oct-15 03:30N 35°24' E 139°40'0 0.5
2017-Oct-15 03:00N 35°24' E 139°40'3 5.3
2017-Oct-15 02:30N 35°22' E 139°41'713.2
2017-Oct-15 02:00N 35°16' E 139°46'612.7
2017-Oct-15 01:30N 35°10' E 139°46'712.9
2017-Oct-15 01:00N 35°04' E 139°45'613.1
2017-Oct-15 00:30N 34°57' E 139°44'612.1
2017-Oct-15 00:01N 34°53' E 139°49'913.8
2017-Oct-14 23:22N 34°54' E 139°59'  
2017-Oct-08 23:42N 33°59' E 135°02'313.6
2017-Oct-08 23:29N 34°02' E 135°03'611.5
2017-Oct-08 23:00N 34°07' E 135°05'0 0.1
2017-Oct-08 22:19N 34°07' E 135°05'0 0.2
2017-Oct-08 22:01N 34°07' E 135°05'0 0.0
2017-Oct-08 21:31N 34°07' E 135°05'0 0.2
2017-Oct-08 20:58N 34°07' E 135°05'0 0.0
2017-Oct-08 20:31N 34°07' E 135°05'0 0.1
2017-Oct-08 19:58N 34°07' E 135°05'0 0.1
2017-Oct-08 19:31N 34°07' E 135°05'0 0.1
2017-Oct-08 19:01N 34°07' E 135°05'0 0.0
2017-Oct-08 18:31N 34°07' E 135°05'0 0.0
2017-Oct-08 17:58N 34°07' E 135°05'0 0.1
2017-Oct-08 17:31N 34°07' E 135°05'0 0.1
2017-Oct-08 17:01N 34°07' E 135°05'0 0.0
2017-Oct-08 16:25N 34°07' E 135°05'0 0.0
2017-Oct-08 15:49N 34°07' E 135°05'0 0.2
2017-Oct-08 15:28N 34°07' E 135°05'0 0.1
2017-Oct-08 15:01N 34°07' E 135°05'0 0.1
2017-Oct-08 14:28N 34°07' E 135°05'0 0.0
2017-Oct-08 13:58N 34°07' E 135°05'0 0.0
2017-Oct-08 13:19N 34°07' E 135°05'0 0.0
2017-Oct-08 13:01N 34°07' E 135°05'0 0.0
2017-Oct-08 12:31N 34°07' E 135°05'0 0.1
2017-Oct-08 12:01N 34°07' E 135°05'0 0.0
2017-Oct-08 11:28N 34°07' E 135°05'0 0.0
2017-Oct-08 11:01N 34°07' E 135°05'0 0.1
2017-Oct-08 10:31N 34°07' E 135°05'0 0.0
2017-Oct-08 10:01N 34°07' E 135°05'0 0.0
2017-Oct-08 09:28N 34°07' E 135°05'0 0.0
2017-Oct-08 09:01N 34°07' E 135°05'0 0.0
2017-Oct-08 08:31N 34°07' E 135°05'0 0.1
2017-Oct-08 07:55N 34°07' E 135°05'0 1.1
2017-Oct-08 07:31N 34°07' E 135°06'2 0.7
2017-Oct-08 05:13N 34°07' E 135°08'1 2.0
2017-Oct-08 04:53N 34°08' E 135°07'1 1.3
2017-Oct-08 04:27N 34°08' E 135°07'0 0.0
2017-Oct-08 03:57N 34°08' E 135°07'0 0.0
2017-Oct-08 03:27N 34°08' E 135°07'0 0.0
2017-Oct-08 02:57N 34°08' E 135°07'0 0.0
2017-Oct-08 02:27N 34°08' E 135°07'0 0.0
2017-Oct-08 02:00N 34°08' E 135°07'0 0.0
2017-Oct-08 01:30N 34°08' E 135°07'0 0.0
2017-Oct-08 00:57N 34°08' E 135°07'0 0.0
2017-Oct-08 00:30N 34°08' E 135°07'0 0.0
2017-Oct-08 00:00N 34°08' E 135°07'0 0.2
2017-Oct-07 23:30N 34°08' E 135°07'0 0.0
2017-Oct-07 23:00N 34°08' E 135°07'0 0.1
2017-Oct-07 22:30N 34°08' E 135°07'0 0.0
2017-Oct-07 22:00N 34°08' E 135°07'0 0.1
2017-Oct-07 21:30N 34°08' E 135°07'0 0.1
2017-Oct-07 20:57N 34°08' E 135°07'0 0.1
2017-Oct-07 20:30N 34°08' E 135°07'0 0.1
2017-Oct-07 19:45N 34°08' E 135°07'0 0.2
2017-Oct-07 19:24N 34°08' E 135°07'0 0.0
2017-Oct-07 18:06N 34°08' E 135°07'0 0.1
2017-Oct-07 18:00N 34°08' E 135°07'0 0.1
2017-Oct-07 17:30N 34°08' E 135°07'0 0.0
2017-Oct-07 17:00N 34°08' E 135°07'0 0.0
2017-Oct-07 16:30N 34°08' E 135°07'0 0.0
2017-Oct-07 16:00N 34°08' E 135°07'0 0.0
2017-Oct-07 15:30N 34°08' E 135°07'0 0.0
2017-Oct-07 14:57N 34°08' E 135°07'0 0.0
2017-Oct-07 14:30N 34°08' E 135°07'0 0.0
2017-Oct-07 14:00N 34°08' E 135°07'0 0.0
2017-Oct-07 13:30N 34°08' E 135°07'0 0.0
2017-Oct-07 13:00N 34°08' E 135°07'0 0.0
2017-Oct-07 12:30N 34°08' E 135°07'0 0.1
2017-Oct-07 12:00N 34°08' E 135°07'0 0.0
2017-Oct-07 11:21N 34°08' E 135°07'0 0.0
2017-Oct-07 10:57N 34°08' E 135°07'0 0.0
2017-Oct-07 10:30N 34°08' E 135°07'0 0.0
2017-Oct-07 10:00N 34°08' E 135°07'0 0.0
2017-Oct-07 09:27N 34°08' E 135°07'0 0.0
2017-Oct-07 09:00N 34°08' E 135°07'0 0.0
2017-Oct-07 08:27N 34°08' E 135°07'0 0.0
2017-Oct-07 07:57N 34°08' E 135°07'0 0.0
2017-Oct-07 07:30N 34°08' E 135°07'0 0.0
2017-Oct-07 07:00N 34°08' E 135°07'0 0.0
2017-Oct-07 06:30N 34°08' E 135°07'0 0.0
2017-Oct-07 06:00N 34°08' E 135°07'0 0.0
2017-Oct-07 05:27N 34°08' E 135°07'0 0.0
2017-Oct-07 05:00N 34°08' E 135°07'0 0.0
2017-Oct-07 04:27N 34°08' E 135°07'0 0.0
2017-Oct-07 03:57N 34°08' E 135°07'0 0.0
2017-Oct-07 03:30N 34°08' E 135°07'0 0.0
2017-Oct-07 03:00N 34°08' E 135°07'0 0.0
2017-Oct-07 02:30N 34°08' E 135°07'1 1.2
2017-Oct-07 02:00N 34°07' E 135°07'0 0.6
2017-Oct-07 01:23N 34°07' E 135°07'0 0.0
2017-Oct-07 00:59N 34°07' E 135°07'0 0.0
2017-Oct-07 00:29N 34°07' E 135°07'1 1.9
2017-Oct-06 23:57N 34°08' E 135°07'0 0.0
2017-Oct-06 23:30N 34°08' E 135°07'0 0.1
2017-Oct-06 23:00N 34°08' E 135°07'0 0.1
2017-Oct-06 22:30N 34°08' E 135°07'0 0.0
2017-Oct-06 22:00N 34°08' E 135°07'0 0.0
2017-Oct-06 21:30N 34°08' E 135°07'0 0.0
2017-Oct-06 21:00N 34°08' E 135°07'0 0.1
2017-Oct-06 20:27N 34°08' E 135°07'0 0.0
2017-Oct-06 20:00N 34°08' E 135°07'0 0.0
2017-Oct-06 19:30N 34°08' E 135°07'0 0.0
2017-Oct-06 18:57N 34°08' E 135°07'0 0.2
2017-Oct-06 18:30N 34°08' E 135°07'3 7.1
2017-Oct-06 18:01N 34°11' E 135°04'814.5
2017-Oct-06 17:29N 34°17' E 134°58'715.0
2017-Oct-06 17:00N 34°24' E 134°60'714.7
2017-Oct-06 16:31N 34°31' E 135°02'612.7
2017-Oct-06 16:01N 34°37' E 134°59'  
Track history (hours):
 
Tides and Currents Weather Stations Pressure Air Temp Water Temp Dewpoint Dewpoint Depression Visibility Wind Speed Wind Dir Waves Ship Positions

Shinsei Maru

Last reported at 2017-Oct-15 14:39 UTC. Time now 2017-Nov-21 21:13 UTC.
Position N 34°57' E 139°44'.
Warning: this ship's position is 37 days out of date.

Length 104 m; draft 6.5 m.

Type: Tanker. MMSI: 431301775.

Date/timePositionNaut miles runAvg speedWind from/ knotsBaromVisibWave heightAir tempDewpointWater temp
2017-Oct-15 14:39N 34°57' E 139°44'813.1
2017-Oct-15 14:01N 35°05' E 139°44'714.1
2017-Oct-15 13:31N 35°12' E 139°46'612.0
2017-Oct-15 13:00N 35°18' E 139°44'4 8.6
2017-Oct-15 12:30N 35°22' E 139°42'3 6.6
2017-Oct-15 12:00N 35°24' E 139°40'0 0.2
2017-Oct-15 11:30N 35°24' E 139°40'0 0.0
2017-Oct-15 11:00N 35°24' E 139°40'0 0.0
2017-Oct-15 10:30N 35°24' E 139°40'0 0.0
2017-Oct-15 10:00N 35°24' E 139°40'0 0.0
2017-Oct-15 09:30N 35°24' E 139°40'0 0.0
2017-Oct-15 09:00N 35°24' E 139°40'0 0.0
2017-Oct-15 08:30N 35°24' E 139°40'0 0.0
2017-Oct-15 08:00N 35°24' E 139°40'0 0.0
2017-Oct-15 07:30N 35°24' E 139°40'0 0.0
2017-Oct-15 07:00N 35°24' E 139°40'0 0.0
2017-Oct-15 06:30N 35°24' E 139°40'0 0.0
2017-Oct-15 06:00N 35°24' E 139°40'0 0.0
2017-Oct-15 05:30N 35°24' E 139°40'0 0.0
2017-Oct-15 05:00N 35°24' E 139°40'0 0.0
2017-Oct-15 04:30N 35°24' E 139°40'0 0.0
2017-Oct-15 04:00N 35°24' E 139°40'0 0.0
2017-Oct-15 03:30N 35°24' E 139°40'0 0.5
2017-Oct-15 03:00N 35°24' E 139°40'3 5.3
2017-Oct-15 02:30N 35°22' E 139°41'713.2
2017-Oct-15 02:00N 35°16' E 139°46'612.7
2017-Oct-15 01:30N 35°10' E 139°46'712.9
2017-Oct-15 01:00N 35°04' E 139°45'613.1
2017-Oct-15 00:30N 34°57' E 139°44'612.1
2017-Oct-15 00:01N 34°53' E 139°49'913.8
2017-Oct-14 23:22N 34°54' E 139°59'  
2017-Oct-08 23:42N 33°59' E 135°02'313.6
2017-Oct-08 23:29N 34°02' E 135°03'611.5
2017-Oct-08 23:00N 34°07' E 135°05'0 0.1
2017-Oct-08 22:19N 34°07' E 135°05'0 0.2
2017-Oct-08 22:01N 34°07' E 135°05'0 0.0
2017-Oct-08 21:31N 34°07' E 135°05'0 0.2
2017-Oct-08 20:58N 34°07' E 135°05'0 0.0
2017-Oct-08 20:31N 34°07' E 135°05'0 0.1
2017-Oct-08 19:58N 34°07' E 135°05'0 0.1
2017-Oct-08 19:31N 34°07' E 135°05'0 0.1
2017-Oct-08 19:01N 34°07' E 135°05'0 0.0
2017-Oct-08 18:31N 34°07' E 135°05'0 0.0
2017-Oct-08 17:58N 34°07' E 135°05'0 0.1
2017-Oct-08 17:31N 34°07' E 135°05'0 0.1
2017-Oct-08 17:01N 34°07' E 135°05'0 0.0
2017-Oct-08 16:25N 34°07' E 135°05'0 0.0
2017-Oct-08 15:49N 34°07' E 135°05'0 0.2
2017-Oct-08 15:28N 34°07' E 135°05'0 0.1
2017-Oct-08 15:01N 34°07' E 135°05'0 0.1
2017-Oct-08 14:28N 34°07' E 135°05'0 0.0
2017-Oct-08 13:58N 34°07' E 135°05'0 0.0
2017-Oct-08 13:19N 34°07' E 135°05'0 0.0
2017-Oct-08 13:01N 34°07' E 135°05'0 0.0
2017-Oct-08 12:31N 34°07' E 135°05'0 0.1
2017-Oct-08 12:01N 34°07' E 135°05'0 0.0
2017-Oct-08 11:28N 34°07' E 135°05'0 0.0
2017-Oct-08 11:01N 34°07' E 135°05'0 0.1
2017-Oct-08 10:31N 34°07' E 135°05'0 0.0
2017-Oct-08 10:01N 34°07' E 135°05'0 0.0
2017-Oct-08 09:28N 34°07' E 135°05'0 0.0
2017-Oct-08 09:01N 34°07' E 135°05'0 0.0
2017-Oct-08 08:31N 34°07' E 135°05'0 0.1
2017-Oct-08 07:55N 34°07' E 135°05'0 1.1
2017-Oct-08 07:31N 34°07' E 135°06'2 0.7
2017-Oct-08 05:13N 34°07' E 135°08'1 2.0
2017-Oct-08 04:53N 34°08' E 135°07'1 1.3
2017-Oct-08 04:27N 34°08' E 135°07'0 0.0
2017-Oct-08 03:57N 34°08' E 135°07'0 0.0
2017-Oct-08 03:27N 34°08' E 135°07'0 0.0
2017-Oct-08 02:57N 34°08' E 135°07'0 0.0
2017-Oct-08 02:27N 34°08' E 135°07'0 0.0
2017-Oct-08 02:00N 34°08' E 135°07'0 0.0
2017-Oct-08 01:30N 34°08' E 135°07'0 0.0
2017-Oct-08 00:57N 34°08' E 135°07'0 0.0
2017-Oct-08 00:30N 34°08' E 135°07'0 0.0
2017-Oct-08 00:00N 34°08' E 135°07'0 0.2
2017-Oct-07 23:30N 34°08' E 135°07'0 0.0
2017-Oct-07 23:00N 34°08' E 135°07'0 0.1
2017-Oct-07 22:30N 34°08' E 135°07'0 0.0
2017-Oct-07 22:00N 34°08' E 135°07'0 0.1
2017-Oct-07 21:30N 34°08' E 135°07'0 0.1
2017-Oct-07 20:57N 34°08' E 135°07'0 0.1
2017-Oct-07 20:30N 34°08' E 135°07'0 0.1
2017-Oct-07 19:45N 34°08' E 135°07'0 0.2
2017-Oct-07 19:24N 34°08' E 135°07'0 0.0
2017-Oct-07 18:06N 34°08' E 135°07'0 0.1
2017-Oct-07 18:00N 34°08' E 135°07'0 0.1
2017-Oct-07 17:30N 34°08' E 135°07'0 0.0
2017-Oct-07 17:00N 34°08' E 135°07'0 0.0
2017-Oct-07 16:30N 34°08' E 135°07'0 0.0
2017-Oct-07 16:00N 34°08' E 135°07'0 0.0
2017-Oct-07 15:30N 34°08' E 135°07'0 0.0
2017-Oct-07 14:57N 34°08' E 135°07'0 0.0
2017-Oct-07 14:30N 34°08' E 135°07'0 0.0
2017-Oct-07 14:00N 34°08' E 135°07'0 0.0
2017-Oct-07 13:30N 34°08' E 135°07'0 0.0
2017-Oct-07 13:00N 34°08' E 135°07'0 0.0
2017-Oct-07 12:30N 34°08' E 135°07'0 0.1
2017-Oct-07 12:00N 34°08' E 135°07'0 0.0
2017-Oct-07 11:21N 34°08' E 135°07'0 0.0
2017-Oct-07 10:57N 34°08' E 135°07'0 0.0
2017-Oct-07 10:30N 34°08' E 135°07'0 0.0
2017-Oct-07 10:00N 34°08' E 135°07'0 0.0
2017-Oct-07 09:27N 34°08' E 135°07'0 0.0
2017-Oct-07 09:00N 34°08' E 135°07'0 0.0
2017-Oct-07 08:27N 34°08' E 135°07'0 0.0
2017-Oct-07 07:57N 34°08' E 135°07'0 0.0
2017-Oct-07 07:30N 34°08' E 135°07'0 0.0
2017-Oct-07 07:00N 34°08' E 135°07'0 0.0
2017-Oct-07 06:30N 34°08' E 135°07'0 0.0
2017-Oct-07 06:00N 34°08' E 135°07'0 0.0
2017-Oct-07 05:27N 34°08' E 135°07'0 0.0
2017-Oct-07 05:00N 34°08' E 135°07'0 0.0
2017-Oct-07 04:27N 34°08' E 135°07'0 0.0
2017-Oct-07 03:57N 34°08' E 135°07'0 0.0
2017-Oct-07 03:30N 34°08' E 135°07'0 0.0
2017-Oct-07 03:00N 34°08' E 135°07'0 0.0
2017-Oct-07 02:30N 34°08' E 135°07'1 1.2
2017-Oct-07 02:00N 34°07' E 135°07'0 0.6
2017-Oct-07 01:23N 34°07' E 135°07'0 0.0
2017-Oct-07 00:59N 34°07' E 135°07'0 0.0
2017-Oct-07 00:29N 34°07' E 135°07'1 1.9
2017-Oct-06 23:57N 34°08' E 135°07'0 0.0
2017-Oct-06 23:30N 34°08' E 135°07'0 0.1
2017-Oct-06 23:00N 34°08' E 135°07'0 0.1
2017-Oct-06 22:30N 34°08' E 135°07'0 0.0
2017-Oct-06 22:00N 34°08' E 135°07'0 0.0
2017-Oct-06 21:30N 34°08' E 135°07'0 0.0
2017-Oct-06 21:00N 34°08' E 135°07'0 0.1
2017-Oct-06 20:27N 34°08' E 135°07'0 0.0
2017-Oct-06 20:00N 34°08' E 135°07'0 0.0
2017-Oct-06 19:30N 34°08' E 135°07'0 0.0
2017-Oct-06 18:57N 34°08' E 135°07'0 0.2
2017-Oct-06 18:30N 34°08' E 135°07'3 7.1
2017-Oct-06 18:01N 34°11' E 135°04'814.5
2017-Oct-06 17:29N 34°17' E 134°58'715.0
2017-Oct-06 17:00N 34°24' E 134°60'714.7
2017-Oct-06 16:31N 34°31' E 135°02'612.7
2017-Oct-06 16:01N 34°37' E 134°59'  

Dump ship's entire track history